Time;durP1;ratioP1;P1;durP2;ratioP2;P2;SDS_P1;SDS_P2;PMS_P1;PMS_P2;Temp;Humidity;BMP_temperature;BMP_pressure;BME280_temperature;BME280_humidity;BME280_pressure;Samples;Min_cycle;Max_cycle;Signal;HPM_P1;HPM_P2
2021/06/09 00:00:23;;;;;;;11.85;9.88;;;15.60;99.50;;;;;;5053707;28;20469;-52
2021/06/09 00:02:49;;;;;;;10.57;9.50;;;15.60;99.70;;;;;;5073639;28;20541;-53
2021/06/09 00:05:15;;;;;;;10.82;9.82;;;15.60;99.70;;;;;;5069544;28;20040;-51
2021/06/09 00:07:41;;;;;;;11.35;10.25;;;15.60;99.80;;;;;;5070055;28;20060;-52
2021/06/09 00:10:08;;;;;;;11.23;10.02;;;15.50;99.90;;;;;;5059415;28;20071;-55
2021/06/09 00:12:35;;;;;;;11.75;10.65;;;15.50;99.90;;;;;;5050213;28;20118;-51
2021/06/09 00:15:04;;;;;;;14.77;11.48;;;15.50;99.90;;;;;;5050066;28;20734;-53
2021/06/09 00:17:31;;;;;;;12.50;11.32;;;15.50;99.90;;;;;;5048647;28;20055;-51
2021/06/09 00:19:59;;;;;;;13.77;11.40;;;15.50;99.90;;;;;;5050821;28;20518;-52
2021/06/09 00:22:27;;;;;;;12.32;11.13;;;15.50;99.90;;;;;;5068886;28;20379;-50
2021/06/09 00:24:57;;;;;;;12.07;10.80;;;15.50;99.90;;;;;;5068545;28;20048;-50
2021/06/09 00:27:23;;;;;;;12.40;11.20;;;15.40;99.90;;;;;;5057601;28;20044;-55
2021/06/09 00:29:49;;;;;;;13.57;11.27;;;15.40;99.90;;;;;;5057112;28;20182;-51
2021/06/09 00:32:15;;;;;;;14.85;12.07;;;15.40;99.90;;;;;;5069311;28;20388;-54
2021/06/09 00:34:42;;;;;;;13.05;11.82;;;15.40;99.90;;;;;;5068328;28;20049;-50
2021/06/09 00:37:10;;;;;;;13.48;12.07;;;15.40;99.90;;;;;;5067979;28;20045;-52
2021/06/09 00:39:36;;;;;;;12.55;11.35;;;15.30;99.90;;;;;;5067145;28;20048;-52
2021/06/09 00:42:03;;;;;;;13.27;11.90;;;15.30;99.90;;;;;;5056162;28;20051;-53
2021/06/09 00:44:30;;;;;;;12.60;11.30;;;15.30;99.90;;;;;;5065893;28;20049;-51
2021/06/09 00:46:57;;;;;;;13.18;11.98;;;15.20;99.90;;;;;;5065938;28;20048;-53
2021/06/09 00:49:23;;;;;;;12.73;11.45;;;15.20;99.90;;;;;;5067568;28;20060;-51
2021/06/09 00:51:49;;;;;;;13.45;12.23;;;15.20;99.90;;;;;;5064117;28;20052;-49
2021/06/09 00:54:18;;;;;;;13.88;12.35;;;15.20;99.90;;;;;;5054292;28;20151;-54
2021/06/09 00:56:44;;;;;;;13.80;12.40;;;15.10;99.90;;;;;;5049291;28;20095;-49
2021/06/09 00:59:14;;;;;;;14.05;12.52;;;15.10;99.90;;;;;;5050366;28;20048;-55
2021/06/09 01:01:40;;;;;;;13.77;12.35;;;15.00;99.90;;;;;;5047466;28;20485;-48
2021/06/09 01:04:09;;;;;;;13.55;12.25;;;15.00;99.90;;;;;;5047983;28;20080;-51
2021/06/09 01:06:36;;;;;;;17.88;11.95;;;15.00;99.90;;;;;;5047830;28;20084;-51
2021/06/09 01:09:17;;;;;;;13.65;12.25;;;15.00;99.90;;;;;;5048897;28;20053;-51
2021/06/09 01:11:44;;;;;;;14.27;12.77;;;14.90;99.90;;;;;;5047935;28;20033;-52
2021/06/09 01:14:26;;;;;;;13.45;12.05;;;14.90;99.90;;;;;;5054919;28;20079;-53
2021/06/09 01:16:53;;;;;;;13.85;12.38;;;14.90;99.90;;;;;;5048046;28;20137;-53
2021/06/09 01:19:23;;;;;;;14.40;13.00;;;14.90;99.90;;;;;;5047946;28;20115;-53
2021/06/09 01:21:51;;;;;;;;;;;14.80;99.90;;;;;;5047821;28;20448;-53
2021/06/09 01:24:18;;;;;;;15.68;13.55;;;14.80;99.90;;;;;;5049623;28;20047;-51
2021/06/09 01:26:44;;;;;;;15.55;14.07;;;14.80;99.90;;;;;;5052154;28;20044;-51
2021/06/09 01:29:11;;;;;;;15.30;13.70;;;14.80;99.90;;;;;;5065148;28;20040;-55
2021/06/09 01:31:37;;;;;;;16.20;14.50;;;14.80;99.90;;;;;;5047159;28;20049;-49
2021/06/09 01:34:05;;;;;;;14.38;13.07;;;14.80;99.90;;;;;;5047501;28;20136;-52
2021/06/09 01:36:41;;;;;;;15.10;13.55;;;14.80;99.90;;;;;;5067146;28;20484;-49
2021/06/09 01:39:14;;;;;;;16.08;14.48;;;14.70;99.90;;;;;;5067244;28;20044;-51
2021/06/09 01:41:50;;;;;;;16.48;14.73;;;14.70;99.90;;;;;;5060628;28;20827;-51
2021/06/09 01:44:40;;;;;;;15.88;14.27;;;14.70;99.90;;;;;;5047417;28;20072;-52
2021/06/09 01:47:07;;;;;;;17.40;15.30;;;14.60;99.90;;;;;;5047266;28;20828;-53
2021/06/09 01:49:34;;;;;;;16.27;14.68;;;14.60;99.90;;;;;;5047184;28;20053;-54
2021/06/09 01:52:02;;;;;;;17.40;15.43;;;14.50;99.90;;;;;;5046479;28;20653;-52
2021/06/09 01:54:29;;;;;;;16.75;15.18;;;14.50;99.90;;;;;;5046410;28;20571;-50
2021/06/09 01:56:58;;;;;;;18.20;16.35;;;14.50;99.90;;;;;;5053017;28;20052;-55
2021/06/09 01:59:24;;;;;;;22.73;16.30;;;14.50;99.90;;;;;;5065497;28;20033;-54
2021/06/09 02:01:51;;;;;;;18.52;16.40;;;14.50;99.90;;;;;;5054767;28;20037;-54
2021/06/09 02:04:18;;;;;;;19.45;17.38;;;14.50;99.90;;;;;;5047652;28;20063;-52
2021/06/09 02:06:54;;;;;;;18.83;16.95;;;14.50;99.90;;;;;;5048301;28;20156;-52
2021/06/09 02:09:36;;;;;;;20.50;18.40;;;14.50;99.90;;;;;;5046962;28;20045;-54
2021/06/09 02:12:07;;;;;;;20.80;18.80;;;14.50;99.90;;;;;;5047401;28;20103;-48
2021/06/09 02:14:35;;;;;;;19.45;17.48;;;14.50;99.90;;;;;;5048167;28;20032;-54
2021/06/09 02:17:04;;;;;;;18.80;17.00;;;14.40;99.90;;;;;;5047719;28;20052;-51
2021/06/09 02:19:32;;;;;;;18.60;16.63;;;14.40;99.90;;;;;;5053664;28;20091;-49
2021/06/09 02:21:59;;;;;;;20.13;18.13;;;14.40;99.90;;;;;;5047069;28;20055;-51
2021/06/09 02:24:27;;;;;;;19.35;17.27;;;14.40;99.90;;;;;;5046677;28;20041;-55
2021/06/09 02:26:54;;;;;;;21.20;19.00;;;14.40;99.90;;;;;;5050525;28;20128;-49
2021/06/09 02:29:23;;;;;;;19.00;17.05;;;14.30;99.90;;;;;;5067371;28;20051;-52
2021/06/09 02:31:51;;;;;;;20.00;18.00;;;14.30;99.90;;;;;;5047309;28;20132;-49
2021/06/09 02:34:25;;;;;;;20.50;17.67;;;14.30;99.90;;;;;;5047242;28;20064;-53
2021/06/09 02:36:55;;;;;;;20.90;18.70;;;14.30;99.90;;;;;;5046873;28;20115;-54
2021/06/09 02:39:24;;;;;;;20.73;18.40;;;14.30;99.90;;;;;;5051696;28;20044;-53
2021/06/09 02:41:50;;;;;;;20.05;18.05;;;14.20;99.90;;;;;;5046598;28;20120;-49
2021/06/09 02:44:17;;;;;;;21.55;19.35;;;14.20;99.90;;;;;;5047468;28;20053;-53
2021/06/09 02:46:52;;;;;;;21.45;19.30;;;14.20;99.90;;;;;;5047865;28;20044;-49
2021/06/09 02:49:38;;;;;;;;;;;14.20;99.90;;;;;;5047206;28;20059;-55
2021/06/09 02:52:29;;;;;;;22.45;20.20;;;14.20;99.90;;;;;;5045825;28;19923;-49
2021/06/09 02:55:12;;;;;;;22.25;20.08;;;14.10;99.90;;;;;;5003409;28;20062;-53
2021/06/09 02:57:51;;;;;;;21.77;19.48;;;14.10;99.90;;;;;;5015884;28;20045;-51
2021/06/09 03:00:23;;;;;;;21.13;19.05;;;14.10;99.90;;;;;;5017487;28;20077;-56
2021/06/09 03:03:13;;;;;;;21.73;19.52;;;14.10;99.90;;;;;;5003791;28;20062;-56
2021/06/09 03:05:59;;;;;;;21.30;18.87;;;14.00;99.90;;;;;;5005336;28;20138;-54
2021/06/09 03:08:36;;;;;;;20.42;18.30;;;14.00;99.90;;;;;;5008284;28;20046;-52
2021/06/09 03:11:16;;;;;;;22.98;19.33;;;14.00;99.90;;;;;;5009958;28;20084;-51
2021/06/09 03:14:00;;;;;;;21.23;19.02;;;14.00;99.90;;;;;;5024398;28;20049;-52
2021/06/09 03:16:53;;;;;;;22.10;19.33;;;13.90;99.90;;;;;;5024656;28;20061;-52
2021/06/09 03:19:22;;;;;;;;;;;14.00;99.90;;;;;;5027830;28;20231;-50
2021/06/09 03:22:30;;;;;;;21.80;19.50;;;14.00;99.90;;;;;;5021593;28;19930;-55
2021/06/09 03:24:58;;;;;;;21.98;19.73;;;13.90;99.90;;;;;;5006625;28;20111;-54
2021/06/09 03:27:44;;;;;;;22.65;19.98;;;14.00;99.90;;;;;;5007805;28;20045;-51
2021/06/09 03:30:13;;;;;;;20.98;18.75;;;14.00;99.90;;;;;;5016553;28;20052;-51
2021/06/09 03:32:55;;;;;;;22.70;20.45;;;13.90;99.90;;;;;;5037234;28;20072;-53
2021/06/09 03:35:45;;;;;;;22.17;20.00;;;13.90;99.90;;;;;;5049390;28;20679;-53
2021/06/09 03:38:26;;;;;;;21.10;18.80;;;13.90;99.90;;;;;;5048713;28;20136;-55
2021/06/09 03:41:00;;;;;;;20.38;18.33;;;13.90;99.90;;;;;;5051079;28;20041;-50
2021/06/09 03:43:29;;;;;;;19.67;17.67;;;14.00;99.90;;;;;;5049286;28;20543;-55
2021/06/09 03:45:57;;;;;;;19.92;17.92;;;14.00;99.90;;;;;;5050383;28;20056;-50
2021/06/09 03:48:28;;;;;;;20.67;18.60;;;14.00;99.90;;;;;;5049831;28;20095;-53
2021/06/09 03:50:59;;;;;;;20.35;18.25;;;14.10;99.90;;;;;;5048465;28;20070;-54
2021/06/09 03:53:44;;;;;;;19.10;17.08;;;14.10;99.90;;;;;;5048335;28;20075;-50
2021/06/09 03:56:11;;;;;;;21.55;18.73;;;14.10;99.90;;;;;;5049351;28;20077;-53
2021/06/09 03:58:41;;;;;;;19.23;17.42;;;14.10;99.90;;;;;;5047415;28;20049;-52
2021/06/09 04:01:09;;;;;;;20.45;18.25;;;14.20;99.90;;;;;;5053692;28;20130;-52
2021/06/09 04:03:37;;;;;;;20.83;18.80;;;14.20;99.90;;;;;;5049176;28;20088;-49
2021/06/09 04:06:07;;;;;;;19.23;17.42;;;14.20;99.90;;;;;;5049356;28;20049;-54
2021/06/09 04:08:36;;;;;;;19.45;17.58;;;14.20;99.90;;;;;;5066994;28;20690;-48
2021/06/09 04:11:03;;;;;;;19.75;17.85;;;14.30;99.90;;;;;;5069331;28;20048;-54
2021/06/09 04:13:30;;;;;;;20.58;18.33;;;14.30;99.90;;;;;;5067460;28;20044;-56
2021/06/09 04:15:59;;;;;;;21.75;19.52;;;14.40;99.90;;;;;;5067613;28;20045;-52
2021/06/09 04:18:29;;;;;;;19.42;17.42;;;14.40;99.90;;;;;;5066513;28;20056;-56
2021/06/09 04:20:59;;;;;;;20.67;18.45;;;14.40;99.90;;;;;;5049759;28;20389;-53
2021/06/09 04:23:26;;;;;;;21.30;19.30;;;14.50;99.90;;;;;;5048793;28;20052;-52
2021/06/09 04:25:53;;;;;;;21.13;19.02;;;14.50;99.90;;;;;;5048479;28;20041;-53
2021/06/09 04:28:20;;;;;;;21.88;19.63;;;14.60;99.90;;;;;;5054594;28;20827;-52
2021/06/09 04:30:50;;;;;;;22.15;19.80;;;14.70;99.90;;;;;;5061318;28;20056;-54
2021/06/09 04:33:17;;;;;;;19.85;17.90;;;14.80;99.90;;;;;;5048047;28;20068;-56
2021/06/09 04:35:47;;;;;;;21.55;19.33;;;14.80;99.90;;;;;;5049052;28;20052;-54
2021/06/09 04:38:16;;;;;;;20.05;18.10;;;14.90;99.90;;;;;;5050746;28;20389;-52
2021/06/09 04:40:43;;;;;;;19.13;17.30;;;15.00;99.90;;;;;;5078638;28;20042;-53
2021/06/09 04:43:10;;;;;;;20.23;18.15;;;15.00;99.90;;;;;;5051665;28;20047;-56
2021/06/09 04:45:36;;;;;;;20.35;18.58;;;15.10;99.90;;;;;;5049062;28;20401;-55
2021/06/09 04:48:09;;;;;;;20.23;18.02;;;15.30;99.90;;;;;;5049905;28;20497;-56
2021/06/09 04:50:35;;;;;;;20.25;18.27;;;15.30;99.90;;;;;;5049369;28;20079;-56
2021/06/09 04:53:11;;;;;;;20.33;18.27;;;15.40;99.90;;;;;;5049083;28;20057;-55
2021/06/09 04:55:39;;;;;;;18.40;16.60;;;15.50;99.90;;;;;;5049225;28;20488;-56
2021/06/09 04:58:08;;;;;;;18.98;17.17;;;15.60;99.90;;;;;;5057482;28;20040;-56
2021/06/09 05:00:35;;;;;;;17.75;16.10;;;15.80;99.90;;;;;;5075601;28;20047;-57
2021/06/09 05:03:02;;;;;;;16.92;15.32;;;15.90;99.90;;;;;;5071519;28;20435;-55
2021/06/09 05:05:29;;;;;;;18.35;16.50;;;16.00;99.90;;;;;;5069009;28;20048;-56
2021/06/09 05:07:55;;;;;;;16.75;15.18;;;16.30;99.90;;;;;;5069233;28;20040;-56
2021/06/09 05:10:22;;;;;;;16.13;14.43;;;16.60;99.90;;;;;;5066328;28;20052;-56
2021/06/09 05:13:06;;;;;;;15.35;13.75;;;17.00;99.90;;;;;;5049583;28;20060;-55
2021/06/09 05:15:38;;;;;;;14.48;13.02;;;17.30;99.90;;;;;;5047193;28;20049;-57
2021/06/09 05:18:14;;;;;;;13.23;11.85;;;17.70;99.90;;;;;;5063430;28;20582;-57
2021/06/09 05:20:45;;;;;;;14.30;12.90;;;18.00;99.90;;;;;;5087840;28;20044;-58
2021/06/09 05:23:20;;;;;;;14.48;12.38;;;18.20;99.10;;;;;;5056978;28;20067;-58
2021/06/09 05:25:53;;;;;;;13.35;11.95;;;18.50;98.00;;;;;;5076373;28;20057;-57
2021/06/09 05:28:22;;;;;;;12.38;11.18;;;18.70;97.40;;;;;;5061040;28;20037;-57
2021/06/09 05:30:53;;;;;;;13.48;9.90;;;18.80;96.60;;;;;;5073877;28;20094;-56
2021/06/09 05:33:21;;;;;;;10.88;9.80;;;18.90;95.60;;;;;;5066053;28;20056;-56
2021/06/09 05:35:51;;;;;;;11.88;10.77;;;19.00;94.90;;;;;;5068114;28;20055;-58
2021/06/09 05:38:23;;;;;;;11.35;10.18;;;19.30;94.70;;;;;;5067250;28;20476;-56
2021/06/09 05:40:51;;;;;;;10.05;9.05;;;19.40;93.90;;;;;;5072114;28;20135;-55
2021/06/09 05:43:25;;;;;;;12.18;9.90;;;19.50;93.30;;;;;;5061593;28;20044;-56
2021/06/09 05:45:52;;;;;;;10.90;9.38;;;19.60;92.30;;;;;;5066579;28;20055;-56
2021/06/09 05:48:20;;;;;;;11.52;9.93;;;19.80;92.70;;;;;;5063994;28;20785;-56
2021/06/09 05:50:54;;;;;;;10.10;9.02;;;20.10;92.30;;;;;;5059235;28;20049;-56
2021/06/09 05:53:25;;;;;;;36.00;32.17;;;20.20;91.20;;;;;;5058759;28;20390;-53
2021/06/09 05:55:52;;;;;;;10.68;9.65;;;20.40;90.60;;;;;;5046178;28;20053;-56
2021/06/09 05:58:23;;;;;;;21.48;19.27;;;20.40;90.40;;;;;;5052426;28;20057;-58
2021/06/09 06:00:54;;;;;;;16.58;11.73;;;20.70;90.00;;;;;;5051723;28;20366;-56
2021/06/09 06:03:25;;;;;;;51.50;46.17;;;20.80;90.20;;;;;;5068164;28;20044;-56
2021/06/09 06:05:58;;;;;;;19.83;17.80;;;21.00;89.20;;;;;;5066707;28;20080;-56
2021/06/09 06:08:29;;;;;;;22.70;19.52;;;21.30;87.10;;;;;;5066624;28;20485;-56
2021/06/09 06:11:00;;;;;;;17.55;15.70;;;21.40;84.90;;;;;;5065042;28;20532;-57
2021/06/09 06:13:28;;;;;;;16.75;15.07;;;21.60;86.70;;;;;;5055727;28;20068;-56
2021/06/09 06:15:58;;;;;;;10.73;9.80;;;21.70;85.10;;;;;;5064210;28;20072;-57
2021/06/09 06:18:51;;;;;;;10.95;9.88;;;21.80;83.90;;;;;;5058062;28;20041;-56
2021/06/09 06:21:19;;;;;;;9.90;8.98;;;21.90;86.10;;;;;;5048492;28;20045;-57
2021/06/09 06:23:47;;;;;;;13.60;12.23;;;21.90;85.40;;;;;;5049569;28;20095;-57
2021/06/09 06:26:19;;;;;;;10.52;9.43;;;22.00;85.90;;;;;;5056780;28;20088;-57
2021/06/09 06:28:48;;;;;;;12.32;11.07;;;22.30;83.70;;;;;;5091366;28;20461;-57
2021/06/09 06:31:23;;;;;;;10.95;8.38;;;22.40;84.00;;;;;;5051231;28;20061;-57
2021/06/09 06:33:55;;;;;;;20.40;18.25;;;22.40;83.00;;;;;;5048860;28;20098;-57
2021/06/09 06:36:25;;;;;;;10.43;9.07;;;22.40;80.60;;;;;;5052925;28;20036;-57
2021/06/09 06:38:52;;;;;;;10.35;9.35;;;22.70;82.60;;;;;;5066117;28;20423;-57
2021/06/09 06:41:21;;;;;;;9.13;8.18;;;22.80;82.40;;;;;;5063727;28;20036;-57
2021/06/09 06:43:49;;;;;;;20.25;18.20;;;23.00;76.80;;;;;;5062561;28;20061;-57
2021/06/09 06:46:18;;;;;;;10.60;9.60;;;23.00;78.00;;;;;;5065481;28;20044;-57
2021/06/09 06:48:50;;;;;;;8.77;7.90;;;23.10;79.10;;;;;;5062091;28;20140;-58
2021/06/09 06:51:19;;;;;;;8.80;7.95;;;23.10;79.60;;;;;;5070175;28;20044;-55
2021/06/09 06:53:47;;;;;;;12.52;11.35;;;23.40;78.50;;;;;;5062404;28;20052;-57
2021/06/09 06:56:15;;;;;;;10.48;9.30;;;23.70;78.00;;;;;;5063705;28;20183;-57
2021/06/09 06:58:51;;;;;;;9.95;9.00;;;23.70;77.60;;;;;;5063336;28;20055;-58
2021/06/09 07:01:27;;;;;;;13.13;11.85;;;24.00;76.20;;;;;;5064801;28;20048;-59
2021/06/09 07:03:56;;;;;;;11.00;8.32;;;24.10;75.70;;;;;;5055153;28;20041;-57
2021/06/09 07:06:23;;;;;;;11.35;10.25;;;24.10;74.50;;;;;;5063185;28;20975;-57
2021/06/09 07:08:49;;;;;;;11.07;8.65;;;24.30;74.20;;;;;;5064162;28;20041;-57
2021/06/09 07:11:19;;;;;;;11.98;10.57;;;24.20;75.20;;;;;;5052755;28;20131;-57
2021/06/09 07:13:48;;;;;;;8.32;7.47;;;24.40;74.70;;;;;;5066363;28;20051;-55
2021/06/09 07:16:16;;;;;;;9.07;7.65;;;24.70;73.70;;;;;;5070496;28;20126;-56
2021/06/09 07:18:46;;;;;;;41.72;37.88;;;24.70;73.00;;;;;;5062622;28;20053;-56
2021/06/09 07:21:16;;;;;;;8.75;7.88;;;24.80;72.40;;;;;;5065457;28;20492;-57
2021/06/09 07:23:43;;;;;;;9.55;8.57;;;24.90;70.90;;;;;;5076754;28;20090;-56
2021/06/09 07:26:11;;;;;;;34.65;31.58;;;24.80;72.60;;;;;;5061811;28;20051;-56
2021/06/09 07:28:45;;;;;;;9.93;8.93;;;25.10;72.20;;;;;;5062884;28;20690;-56
2021/06/09 07:31:14;;;;;;;10.63;8.45;;;25.30;70.60;;;;;;5064956;28;20048;-56
2021/06/09 07:33:41;;;;;;;7.78;7.07;;;25.30;71.50;;;;;;5062207;28;20049;-56
2021/06/09 07:36:10;;;;;;;12.80;11.27;;;25.60;70.10;;;;;;5063263;28;20078;-57
2021/06/09 07:38:43;;;;;;;8.25;7.45;;;25.80;68.20;;;;;;5063940;28;20503;-56
2021/06/09 07:41:11;;;;;;;13.50;11.73;;;25.90;67.40;;;;;;5064330;28;20488;-55
2021/06/09 07:43:41;;;;;;;30.15;27.58;;;26.10;67.20;;;;;;5060989;28;20048;-56
2021/06/09 07:46:26;;;;;;;7.65;6.93;;;26.10;66.00;;;;;;5051543;28;20045;-56
2021/06/09 07:48:56;;;;;;;8.30;7.50;;;26.20;65.90;;;;;;5061813;28;20059;-55
2021/06/09 07:51:24;;;;;;;8.07;7.03;;;26.30;65.30;;;;;;5064455;28;20167;-55
2021/06/09 07:53:57;;;;;;;17.50;15.20;;;26.50;64.40;;;;;;5063536;28;20119;-54
2021/06/09 07:56:32;;;;;;;8.20;7.40;;;26.80;63.10;;;;;;5056285;28;20047;-52
2021/06/09 07:59:02;;;;;;;9.75;8.40;;;26.90;60.60;;;;;;5066681;28;20046;-55
2021/06/09 08:01:28;;;;;;;21.02;19.17;;;26.90;61.00;;;;;;5066875;28;20449;-56
2021/06/09 08:03:56;;;;;;;11.50;10.27;;;26.90;60.30;;;;;;5066523;28;20053;-57
2021/06/09 08:06:24;;;;;;;8.57;7.78;;;26.90;60.00;;;;;;5056311;28;20048;-56
2021/06/09 08:08:51;;;;;;;14.10;12.35;;;27.10;60.60;;;;;;5063838;28;20063;-56
2021/06/09 08:11:18;;;;;;;12.75;11.65;;;27.30;61.80;;;;;;5062501;28;20452;-55
2021/06/09 08:13:45;;;;;;;12.30;11.30;;;27.40;59.50;;;;;;5068804;28;20135;-55
2021/06/09 08:16:17;;;;;;;16.80;15.40;;;27.20;58.00;;;;;;5069038;28;20094;-55
2021/06/09 08:18:47;;;;;;;14.10;12.70;;;27.50;57.60;;;;;;5065269;28;20480;-55
2021/06/09 08:21:20;;;;;;;12.15;11.10;;;27.10;56.90;;;;;;5064138;28;20045;-54
2021/06/09 08:23:49;;;;;;;12.50;11.45;;;27.50;57.80;;;;;;5063924;28;20047;-56
2021/06/09 08:26:17;;;;;;;14.63;13.25;;;27.70;57.60;;;;;;5061798;28;20148;-56
2021/06/09 08:28:47;;;;;;;16.48;15.00;;;27.60;57.20;;;;;;5063270;28;20040;-54
2021/06/09 08:31:22;;;;;;;12.05;10.85;;;27.70;56.50;;;;;;5068205;28;20135;-55
2021/06/09 08:33:52;;;;;;;11.70;10.55;;;27.70;58.80;;;;;;5067543;28;20110;-55
2021/06/09 08:36:20;;;;;;;13.38;12.10;;;28.10;57.70;;;;;;5066926;28;20126;-58
2021/06/09 08:38:59;;;;;;;16.85;15.35;;;28.40;55.20;;;;;;5063251;28;20049;-56
2021/06/09 08:41:37;;;;;;;13.05;11.95;;;28.10;57.30;;;;;;5054177;28;20078;-56
2021/06/09 08:44:14;;;;;;;12.48;11.40;;;28.30;55.90;;;;;;5061870;28;20388;-55
2021/06/09 08:46:47;;;;;;;12.38;11.27;;;28.50;55.80;;;;;;5067206;28;20048;-55
2021/06/09 08:49:18;;;;;;;15.95;14.55;;;28.50;55.10;;;;;;5068074;28;20040;-55
2021/06/09 08:51:47;;;;;;;15.00;13.57;;;28.60;55.80;;;;;;5056824;28;20464;-55
2021/06/09 08:54:15;;;;;;;14.25;13.05;;;28.40;54.60;;;;;;5068732;28;20044;-55
2021/06/09 08:56:42;;;;;;;13.13;12.02;;;28.50;53.50;;;;;;5062221;28;20045;-55
2021/06/09 08:59:08;;;;;;;13.30;12.20;;;28.60;54.40;;;;;;5068773;28;20101;-56
2021/06/09 09:01:36;;;;;;;13.35;12.10;;;28.80;52.20;;;;;;5066593;28;20122;-55
2021/06/09 09:04:05;;;;;;;14.20;12.82;;;29.20;53.00;;;;;;5068373;28;20090;-54
2021/06/09 09:06:32;;;;;;;;;;;29.20;50.90;;;;;;5068751;28;20049;-54
2021/06/09 09:08:59;;;;;;;15.02;13.82;;;29.10;50.70;;;;;;5068498;28;20306;-57
2021/06/09 09:11:25;;;;;;;14.02;12.65;;;28.90;50.90;;;;;;5067327;28;20076;-57
2021/06/09 09:13:51;;;;;;;13.23;12.13;;;29.30;49.20;;;;;;5073261;28;20279;-55
2021/06/09 09:16:18;;;;;;;13.15;12.05;;;29.20;50.80;;;;;;5068760;28;20161;-55
2021/06/09 09:18:56;;;;;;;14.27;12.88;;;29.40;49.60;;;;;;5067563;28;20055;-55
2021/06/09 09:21:37;;;;;;;14.02;12.82;;;29.70;48.50;;;;;;5065415;28;20045;-55
2021/06/09 09:24:07;;;;;;;14.00;12.68;;;30.00;47.90;;;;;;5066743;28;20522;-55
2021/06/09 09:26:35;;;;;;;13.40;12.20;;;29.80;47.50;;;;;;5066709;28;20041;-55
2021/06/09 09:29:09;;;;;;;13.48;12.40;;;30.00;46.70;;;;;;5064197;28;20373;-56
2021/06/09 09:31:59;;;;;;;17.10;15.65;;;30.50;47.90;;;;;;5068365;28;20061;-56
2021/06/09 09:34:43;;;;;;;14.60;13.40;;;30.00;45.30;;;;;;5067076;28;20396;-56
2021/06/09 09:37:27;;;;;;;11.63;10.60;;;29.30;46.00;;;;;;5067298;28;20055;-56
2021/06/09 09:40:16;;;;;;;27.75;25.33;;;29.20;46.80;;;;;;5064869;28;20177;-56
2021/06/09 09:42:50;;;;;;;21.23;19.40;;;29.30;46.80;;;;;;5061259;28;20037;-56
2021/06/09 09:45:23;;;;;;;15.93;14.48;;;29.30;46.40;;;;;;5066447;28;20054;-56
2021/06/09 09:48:09;;;;;;;26.55;24.30;;;29.00;47.60;;;;;;5054853;28;20045;-56
2021/06/09 09:50:46;;;;;;;12.95;11.75;;;29.50;48.90;;;;;;5061127;28;20043;-56
2021/06/09 09:53:21;;;;;;;11.60;10.50;;;29.70;47.30;;;;;;5058946;28;20173;-57
2021/06/09 09:55:57;;;;;;;15.82;14.48;;;29.20;47.40;;;;;;5053722;28;20044;-57
2021/06/09 09:58:25;;;;;;;11.65;10.35;;;29.30;46.10;;;;;;5052060;28;20887;-56
2021/06/09 10:00:52;;;;;;;14.55;13.15;;;29.50;46.70;;;;;;5048363;28;20060;-57
2021/06/09 10:03:20;;;;;;;11.95;10.85;;;29.10;46.60;;;;;;5064194;28;20041;-57
2021/06/09 10:05:47;;;;;;;12.85;11.40;;;29.30;46.60;;;;;;5067313;28;20082;-57
2021/06/09 10:08:16;;;;;;;13.43;12.23;;;29.60;44.90;;;;;;5065735;28;20056;-57
2021/06/09 10:10:42;;;;;;;12.20;11.15;;;29.30;44.60;;;;;;5067298;28;20048;-57
2021/06/09 10:13:15;;;;;;;10.73;9.80;;;29.20;43.40;;;;;;5066108;28;20092;-57
2021/06/09 10:15:49;;;;;;;10.48;9.43;;;29.60;45.30;;;;;;5063184;28;20079;-57
2021/06/09 10:18:27;;;;;;;13.45;12.15;;;29.20;45.50;;;;;;5064810;28;20060;-57
2021/06/09 10:20:56;;;;;;;;;;;29.60;45.70;;;;;;5055811;28;20388;-57
2021/06/09 10:23:39;;;;;;;11.98;10.90;;;29.30;43.40;;;;;;5067049;28;19931;-57
2021/06/09 10:26:10;;;;;;;11.50;10.50;;;29.70;45.60;;;;;;5076951;28;20071;-57
2021/06/09 10:29:00;;;;;;;10.70;9.75;;;30.00;44.80;;;;;;5066128;28;20499;-56
2021/06/09 10:31:30;;;;;;;13.32;12.00;;;30.30;44.70;;;;;;5053992;28;20064;-58
2021/06/09 10:33:57;;;;;;;12.27;11.17;;;30.40;44.00;;;;;;5069475;28;20060;-57
2021/06/09 10:36:25;;;;;;;13.93;12.73;;;30.00;44.20;;;;;;5055809;28;20295;-57
2021/06/09 10:38:53;;;;;;;14.60;13.40;;;30.20;43.20;;;;;;5051437;28;20068;-57
2021/06/09 10:41:25;;;;;;;15.82;14.35;;;30.80;44.00;;;;;;5063594;28;20048;-57
2021/06/09 10:43:54;;;;;;;14.35;12.77;;;31.00;43.30;;;;;;5049800;28;20057;-57
2021/06/09 10:46:26;;;;;;;13.43;12.23;;;30.90;42.60;;;;;;5064705;28;20365;-57
2021/06/09 10:48:59;;;;;;;11.88;10.85;;;31.40;39.80;;;;;;5069136;28;20492;-57
2021/06/09 10:51:26;;;;;;;15.35;13.93;;;31.30;41.70;;;;;;5065156;28;20066;-57
2021/06/09 10:53:53;;;;;;;12.43;11.15;;;31.30;42.60;;;;;;5067775;28;20048;-57
2021/06/09 10:56:22;;;;;;;11.82;10.82;;;31.20;41.10;;;;;;5055945;28;20049;-57
2021/06/09 10:58:51;;;;;;;13.43;12.23;;;31.30;42.50;;;;;;5071029;28;20158;-57
2021/06/09 11:01:22;;;;;;;13.73;12.63;;;31.00;43.50;;;;;;5070842;28;20558;-57
2021/06/09 11:03:53;;;;;;;14.85;13.55;;;30.60;43.70;;;;;;5067555;28;20040;-56
2021/06/09 11:06:44;;;;;;;15.82;14.43;;;30.40;42.50;;;;;;5070240;28;20089;-57
2021/06/09 11:09:20;;;;;;;15.85;14.55;;;29.90;43.20;;;;;;5086297;28;20044;-57
2021/06/09 11:12:21;;;;;;;15.63;14.43;;;30.00;43.90;;;;;;5072461;28;20063;-57
2021/06/09 11:14:48;;;;;;;14.13;12.73;;;30.20;44.00;;;;;;5004799;28;20045;-57
2021/06/09 11:17:15;;;;;;;15.23;14.00;;;30.90;44.80;;;;;;5004486;28;20182;-55
2021/06/09 11:19:46;;;;;;;14.68;13.48;;;30.80;43.50;;;;;;5004030;28;20057;-57
2021/06/09 11:22:25;;;;;;;15.40;14.13;;;30.50;44.10;;;;;;5016973;28;20053;-55
2021/06/09 11:25:08;;;;;;;16.35;15.00;;;30.20;44.20;;;;;;5024202;28;20038;-56
2021/06/09 11:27:36;;;;;;;15.80;14.38;;;30.20;44.10;;;;;;5022257;28;20041;-58
2021/06/09 11:30:23;;;;;;;14.20;13.10;;;30.20;44.60;;;;;;5015397;28;20057;-57
2021/06/09 11:33:02;;;;;;;14.95;13.65;;;30.10;44.70;;;;;;5023757;28;20099;-57
2021/06/09 11:35:46;;;;;;;16.63;15.13;;;30.10;43.50;;;;;;5026899;28;20097;-57
2021/06/09 11:38:12;;;;;;;15.77;14.40;;;29.80;46.20;;;;;;5027691;28;20041;-57
2021/06/09 11:41:02;;;;;;;15.45;14.15;;;29.70;45.40;;;;;;5027321;28;20053;-57
2021/06/09 11:43:38;;;;;;;15.85;14.45;;;30.00;45.20;;;;;;5025968;28;20144;-55
2021/06/09 11:46:16;;;;;;;15.48;14.20;;;30.40;45.20;;;;;;5026380;28;20046;-55
2021/06/09 11:48:56;;;;;;;16.45;14.75;;;31.20;43.40;;;;;;5025335;28;20133;-55
2021/06/09 11:51:27;;;;;;;16.33;14.93;;;31.00;41.60;;;;;;5064733;28;20601;-52
2021/06/09 11:53:58;;;;;;;17.25;15.82;;;30.90;43.10;;;;;;5068565;28;20048;-56
2021/06/09 11:56:35;;;;;;;17.67;16.02;;;30.80;42.70;;;;;;5069261;28;20550;-54
2021/06/09 11:59:05;;;;;;;19.77;18.20;;;31.40;41.20;;;;;;5069918;28;20044;-55
2021/06/09 12:01:43;;;;;;;14.15;12.95;;;31.40;41.30;;;;;;5070737;28;20534;-55
2021/06/09 12:04:28;;;;;;;16.58;15.07;;;31.70;41.40;;;;;;5069230;28;20477;-55
2021/06/09 12:07:03;;;;;;;16.00;14.50;;;31.50;39.80;;;;;;5050577;28;20045;-55
2021/06/09 12:09:34;;;;;;;11.05;10.05;;;31.50;40.10;;;;;;5049412;28;20126;-55
2021/06/09 12:12:01;;;;;;;;;;;31.40;39.50;;;;;;5057843;28;20117;-55
2021/06/09 12:14:38;;;;;;;11.18;10.18;;;30.70;40.30;;;;;;5069701;28;19920;-57
2021/06/09 12:17:10;;;;;;;14.43;13.10;;;30.60;40.80;;;;;;5067390;28;20044;-58
2021/06/09 12:19:42;;;;;;;17.65;16.05;;;30.40;41.60;;;;;;5068734;28;20040;-58
2021/06/09 12:22:22;;;;;;;27.52;25.23;;;30.40;41.50;;;;;;5064577;28;20067;-55
2021/06/09 12:25:09;;;;;;;16.15;14.75;;;30.50;41.10;;;;;;5062398;28;20461;-55
2021/06/09 12:27:38;;;;;;;16.08;14.55;;;30.20;41.20;;;;;;5070905;28;20079;-54
2021/06/09 12:30:07;;;;;;;17.13;15.45;;;29.90;42.20;;;;;;5068610;28;20036;-56
2021/06/09 12:32:35;;;;;;;12.35;11.18;;;29.60;43.10;;;;;;5074157;28;20567;-57
2021/06/09 12:35:10;;;;;;;14.35;12.93;;;29.40;43.60;;;;;;5069466;28;20049;-59
2021/06/09 12:37:44;;;;;;;11.05;10.05;;;30.20;43.10;;;;;;5061239;28;20045;-58
2021/06/09 12:40:19;;;;;;;12.55;11.45;;;30.50;42.60;;;;;;5054393;28;20036;-59
2021/06/09 12:43:06;;;;;;;13.93;12.73;;;30.70;42.80;;;;;;5056965;28;20037;-59
2021/06/09 12:45:39;;;;;;;15.90;14.48;;;30.70;42.70;;;;;;5070152;28;20147;-57
2021/06/09 12:48:09;;;;;;;16.30;14.95;;;30.20;43.20;;;;;;5068202;28;20766;-56
2021/06/09 12:50:44;;;;;;;13.70;12.60;;;29.50;44.40;;;;;;5085169;28;20052;-57
2021/06/09 12:53:24;;;;;;;13.82;12.63;;;29.70;44.70;;;;;;5067029;28;20068;-57